createdAt,value
2017-09-04T00:00:08.725Z,1009.29
2017-09-04T00:01:18.997Z,1009.26
2017-09-04T00:02:29.277Z,1009.31
2017-09-04T00:03:39.796Z,1009.27
2017-09-04T00:04:49.755Z,1009.28
2017-09-04T00:06:00.025Z,1009.26
2017-09-04T00:07:10.297Z,1009.28
2017-09-04T00:08:20.572Z,1009.29
2017-09-04T00:09:31.094Z,1009.25
2017-09-04T00:10:40.740Z,1009.23
2017-09-04T00:11:50.698Z,1009.22
2017-09-04T00:13:00.667Z,1009.27
2017-09-04T00:14:10.610Z,1009.24
2017-09-04T00:15:20.805Z,1009.22
2017-09-04T00:16:31.084Z,1009.2
2017-09-04T00:17:41.357Z,1009.19
2017-09-04T00:18:51.624Z,1009.21
2017-09-04T00:20:01.904Z,1009.22
2017-09-04T00:21:12.452Z,1009.21
2017-09-04T00:22:22.722Z,1009.23
2017-09-04T00:23:32.991Z,1009.18
2017-09-04T00:24:43.305Z,1009.18
2017-09-04T00:25:53.574Z,1009.18
2017-09-04T00:27:04.151Z,1009.21
2017-09-04T00:28:14.120Z,1009.15
2017-09-04T00:29:24.404Z,1009.17
2017-09-04T00:30:34.678Z,1009.17
2017-09-04T00:31:44.626Z,1009.19
2017-09-04T00:32:55.161Z,1009.22
2017-09-04T00:34:05.109Z,1009.23
2017-09-04T00:35:15.402Z,1009.25
2017-09-04T00:36:25.674Z,1009.27
2017-09-04T00:37:35.640Z,1009.25
2017-09-04T00:38:46.150Z,1009.27
2017-09-04T00:39:56.427Z,1009.29
2017-09-04T00:41:06.384Z,1009.26
2017-09-04T00:42:16.331Z,1009.27
2017-09-04T00:43:26.289Z,1009.26
2017-09-04T00:44:36.493Z,1009.26
2017-09-04T00:45:46.443Z,1009.24
2017-09-04T00:46:56.714Z,1009.2
2017-09-04T00:48:06.983Z,1009.18
2017-09-04T00:49:17.241Z,1009.14
2017-09-04T00:50:27.755Z,1009.18
2017-09-04T00:51:37.697Z,1009.16
2017-09-04T00:52:47.971Z,1009.14
2017-09-04T00:53:57.943Z,1009.12
2017-09-04T00:55:08.221Z,1009.1
2017-09-04T00:56:18.448Z,1009.12
2017-09-04T00:57:28.732Z,1009.1
2017-09-04T00:58:39.019Z,1009.1
2017-09-04T00:59:48.982Z,1009.14
2017-09-04T01:00:58.935Z,1009.12
2017-09-04T01:02:09.141Z,1009.07
2017-09-04T01:03:19.414Z,1009.07
2017-09-04T01:04:29.669Z,1009.08
2017-09-04T01:05:39.948Z,1009.1
2017-09-04T01:06:50.212Z,1009.07
2017-09-04T01:08:00.754Z,1009.09
2017-09-04T01:09:11.020Z,1009.11
2017-09-04T01:10:20.972Z,1009.13
2017-09-04T01:11:30.960Z,1009.14
2017-09-04T01:12:41.236Z,1009.1
2017-09-04T01:13:51.751Z,1009.09
2017-09-04T01:15:01.702Z,1009.1
2017-09-04T01:16:11.980Z,1009.09
2017-09-04T01:17:22.275Z,1009.07
2017-09-04T01:18:32.230Z,1009.09
2017-09-04T01:19:42.750Z,1009.07
2017-09-04T01:20:53.031Z,1009.08
2017-09-04T01:22:02.696Z,1009.06
2017-09-04T01:23:12.819Z,1009.09
2017-09-04T01:24:23.102Z,1009.1
2017-09-04T01:25:33.612Z,1009.14
2017-09-04T01:26:43.887Z,1009.14
2017-09-04T01:27:54.186Z,1009.16
2017-09-04T01:29:04.146Z,1009.19
2017-09-04T01:30:14.420Z,1009.19
2017-09-04T01:31:24.996Z,1009.17
2017-09-04T01:32:35.266Z,1009.17
2017-09-04T01:33:45.544Z,1009.15
2017-09-04T01:34:55.495Z,1009.17
2017-09-04T01:36:05.462Z,1009.15
2017-09-04T01:37:16.002Z,1009.18
2017-09-04T01:38:25.965Z,1009.17
2017-09-04T01:39:35.944Z,1009.15
2017-09-04T01:40:45.915Z,1009.19
2017-09-04T01:41:56.192Z,1009.18
2017-09-04T01:43:06.404Z,1009.14
2017-09-04T01:44:16.669Z,1009.18
2017-09-04T01:45:26.955Z,1009.17
2017-09-04T01:46:36.912Z,1009.14
2017-09-04T01:47:47.182Z,1009.18
2017-09-04T01:48:57.701Z,1009.21
2017-09-04T01:50:07.683Z,1009.2
2017-09-04T01:51:17.962Z,1009.25
2017-09-04T01:52:27.916Z,1009.2
2017-09-04T01:53:38.202Z,1009.21
2017-09-04T01:54:48.725Z,1009.23
2017-09-04T01:55:59.001Z,1009.18
2017-09-04T01:57:08.959Z,1009.21
2017-09-04T01:58:19.216Z,1009.17
2017-09-04T01:59:29.489Z,1009.18
2017-09-04T02:00:39.687Z,1009.16
2017-09-04T02:01:49.956Z,1009.2
2017-09-04T02:03:00.240Z,1009.15
2017-09-04T02:04:10.526Z,1009.18
2017-09-04T02:05:20.802Z,1009.19
2017-09-04T02:06:30.997Z,1009.17
2017-09-04T02:07:40.951Z,1009.22
2017-09-04T02:08:50.918Z,1009.2
2017-09-04T02:10:00.883Z,1009.21
2017-09-04T02:11:10.858Z,1009.21
2017-09-04T02:12:21.368Z,1009.2
2017-09-04T02:13:31.646Z,1009.21
2017-09-04T02:14:41.925Z,1009.22
2017-09-04T02:15:51.884Z,1009.2
2017-09-04T02:17:02.137Z,1009.21
2017-09-04T02:18:12.346Z,1009.2
2017-09-04T02:19:23.115Z,1009.2
2017-09-04T02:20:33.371Z,1009.16
2017-09-04T02:21:43.650Z,1009.19
2017-09-04T02:22:53.911Z,1009.15
2017-09-04T02:24:04.122Z,1009.17
2017-09-04T02:25:14.067Z,1009.16
2017-09-04T02:26:24.354Z,1009.18
2017-09-04T02:27:34.625Z,1009.13
2017-09-04T02:28:44.585Z,1009.14
2017-09-04T02:29:55.033Z,1009.16
2017-09-04T02:31:05.333Z,1009.16
2017-09-04T02:32:15.603Z,1009.16
2017-09-04T02:33:25.867Z,1009.15
2017-09-04T02:34:35.807Z,1009.16
2017-09-04T02:35:46.344Z,1009.16
2017-09-04T02:36:56.638Z,1009.15
2017-09-04T02:38:06.614Z,1009.14
2017-09-04T02:39:17.420Z,1009.15
2017-09-04T02:40:27.699Z,1009.1
2017-09-04T02:41:37.886Z,1009.1
2017-09-04T02:42:47.844Z,1009.09
2017-09-04T02:43:57.482Z,1009.04
2017-09-04T02:45:07.435Z,1009.03
2017-09-04T02:46:17.397Z,1009.03
2017-09-04T02:47:27.659Z,1009.02
2017-09-04T02:48:37.935Z,1009.01
2017-09-04T02:49:48.208Z,1008.95
2017-09-04T02:50:58.494Z,1008.97
2017-09-04T02:52:08.755Z,1008.95
2017-09-04T02:53:19.263Z,1008.96
2017-09-04T02:54:29.211Z,1008.96
2017-09-04T02:55:39.175Z,1008.96
2017-09-04T02:56:49.484Z,1008.92
2017-09-04T02:57:59.744Z,1008.94
2017-09-04T02:59:10.253Z,1008.88
2017-09-04T03:00:20.532Z,1008.87
2017-09-04T03:01:30.810Z,1008.9
2017-09-04T03:02:41.082Z,1008.87
2017-09-04T03:03:51.370Z,1008.85
2017-09-04T03:05:01.898Z,1008.86
2017-09-04T03:06:11.855Z,1008.8
2017-09-04T03:07:22.143Z,1008.88
2017-09-04T03:08:32.444Z,1008.82
2017-09-04T03:09:42.714Z,1008.82
2017-09-04T03:10:52.924Z,1008.8
2017-09-04T03:12:03.187Z,1008.85
2017-09-04T03:13:13.472Z,1008.81
2017-09-04T03:14:23.759Z,1008.78
2017-09-04T03:15:34.036Z,1008.78
2017-09-04T03:16:44.554Z,1008.77
2017-09-04T03:17:54.518Z,1008.79
2017-09-04T03:19:04.778Z,1008.78
2017-09-04T03:20:14.726Z,1008.78
2017-09-04T03:21:24.668Z,1008.78
2017-09-04T03:22:34.880Z,1008.8
2017-09-04T03:23:44.503Z,1008.8
2017-09-04T03:24:54.774Z,1008.82
2017-09-04T03:26:04.734Z,1008.82
2017-09-04T03:27:14.995Z,1008.82
2017-09-04T03:28:24.870Z,1008.8
2017-09-04T03:29:35.133Z,1008.82
2017-09-04T03:30:45.392Z,1008.83
2017-09-04T03:31:55.357Z,1008.83
2017-09-04T03:33:05.635Z,1008.81
2017-09-04T03:34:15.850Z,1008.81
2017-09-04T03:35:25.800Z,1008.83
2017-09-04T03:36:35.750Z,1008.81
2017-09-04T03:37:46.023Z,1008.84
2017-09-04T03:38:56.293Z,1008.82
2017-09-04T03:40:06.829Z,1008.82
2017-09-04T03:41:17.116Z,1008.81
2017-09-04T03:42:27.386Z,1008.84
2017-09-04T03:43:37.021Z,1008.83
2017-09-04T03:44:47.307Z,1008.86
2017-09-04T03:45:57.827Z,1008.86
2017-09-04T03:47:07.779Z,1008.84
2017-09-04T03:48:17.735Z,1008.88
2017-09-04T03:49:28.019Z,1008.88
2017-09-04T03:50:38.306Z,1008.91
2017-09-04T03:51:48.516Z,1008.9
2017-09-04T03:52:58.805Z,1008.94
2017-09-04T03:54:09.062Z,1008.95
2017-09-04T03:55:19.339Z,1008.94
2017-09-04T03:56:29.302Z,1008.93
2017-09-04T03:57:39.515Z,1008.88
2017-09-04T03:58:49.787Z,1008.9
2017-09-04T04:00:00.063Z,1008.91
2017-09-04T04:01:10.013Z,1008.88
2017-09-04T04:02:20.274Z,1008.87
2017-09-04T04:03:30.802Z,1008.85
2017-09-04T04:04:41.076Z,1008.88
2017-09-04T04:05:51.039Z,1008.86
2017-09-04T04:07:01.313Z,1008.9
2017-09-04T04:08:11.576Z,1008.89
2017-09-04T04:09:21.790Z,1008.89
2017-09-04T04:10:32.068Z,1008.85
2017-09-04T04:11:42.348Z,1008.9
2017-09-04T04:12:52.968Z,1008.91
2017-09-04T04:14:02.923Z,1008.9
2017-09-04T04:15:13.183Z,1008.87
2017-09-04T04:16:23.454Z,1008.87
2017-09-04T04:17:33.419Z,1008.84
2017-09-04T04:18:43.709Z,1008.86
2017-09-04T04:19:53.701Z,1008.83
2017-09-04T04:21:04.214Z,1008.81
2017-09-04T04:22:14.486Z,1008.83
2017-09-04T04:23:24.774Z,1008.82
2017-09-04T04:24:35.061Z,1008.84
2017-09-04T04:25:45.098Z,1008.8
2017-09-04T04:26:55.617Z,1008.84
2017-09-04T04:28:05.907Z,1008.8
2017-09-04T04:29:15.862Z,1008.78
2017-09-04T04:30:26.122Z,1008.76
2017-09-04T04:31:36.092Z,1008.79
2017-09-04T04:32:46.633Z,1008.75
2017-09-04T04:33:56.901Z,1008.75
2017-09-04T04:35:07.179Z,1008.69
2017-09-04T04:36:17.126Z,1008.7
2017-09-04T04:37:27.394Z,1008.7
2017-09-04T04:38:37.915Z,1008.77
2017-09-04T04:39:48.205Z,1008.75
2017-09-04T04:40:58.190Z,1008.8
2017-09-04T04:42:08.467Z,1008.77
2017-09-04T04:43:18.746Z,1008.79
2017-09-04T04:44:28.945Z,1008.79
2017-09-04T04:45:38.282Z,1008.83
2017-09-04T04:46:48.561Z,1008.76
2017-09-04T04:47:58.836Z,1008.79
2017-09-04T04:49:08.792Z,1008.75
2017-09-04T04:50:19.299Z,1008.75
2017-09-04T04:51:29.565Z,1008.74
2017-09-04T04:52:39.840Z,1008.77
2017-09-04T04:53:50.123Z,1008.76
2017-09-04T04:55:00.402Z,1008.76
2017-09-04T04:56:10.979Z,1008.78
2017-09-04T04:57:20.930Z,1008.76
2017-09-04T04:58:31.223Z,1008.74
2017-09-04T04:59:42.045Z,1008.78
2017-09-04T05:00:52.405Z,1008.79
2017-09-04T05:02:02.356Z,1008.74
2017-09-04T05:03:12.645Z,1008.81
2017-09-04T05:04:22.962Z,1008.76
2017-09-04T05:05:33.226Z,1008.76
2017-09-04T05:06:43.197Z,1008.75
2017-09-04T05:07:53.395Z,1008.7
2017-09-04T05:09:03.349Z,1008.69
2017-09-04T05:10:13.308Z,1008.68
2017-09-04T05:11:23.308Z,1008.67
2017-09-04T05:12:33.606Z,1008.66
2017-09-04T05:13:43.493Z,1008.65
2017-09-04T05:14:53.136Z,1008.58
2017-09-04T05:16:03.408Z,1008.65
2017-09-04T05:17:13.674Z,1008.62
2017-09-04T05:18:23.930Z,1008.69
2017-09-04T05:19:33.832Z,1008.68
2017-09-04T05:20:44.111Z,1008.61
2017-09-04T05:21:54.382Z,1008.66
2017-09-04T05:23:04.653Z,1008.63
2017-09-04T05:24:14.931Z,1008.7
2017-09-04T05:25:25.467Z,1008.69
2017-09-04T05:26:35.096Z,1008.69
2017-09-04T05:27:45.400Z,1008.73
2017-09-04T05:28:55.352Z,1008.79
2017-09-04T05:30:05.623Z,1008.7
2017-09-04T05:31:16.135Z,1008.73
2017-09-04T05:32:26.408Z,1008.72
2017-09-04T05:33:36.667Z,1008.7
2017-09-04T05:34:47.007Z,1008.71
2017-09-04T05:35:57.277Z,1008.71
2017-09-04T05:37:07.470Z,1008.72
2017-09-04T05:38:17.751Z,1008.71
2017-09-04T05:39:28.019Z,1008.71
2017-09-04T05:40:37.652Z,1008.74
2017-09-04T05:41:47.902Z,1008.75
2017-09-04T05:42:58.097Z,1008.72
2017-09-04T05:44:08.069Z,1008.77
2017-09-04T05:45:18.356Z,1008.77
2017-09-04T05:46:28.326Z,1008.78
2017-09-04T05:47:38.278Z,1008.74
2017-09-04T05:48:48.495Z,1008.73
2017-09-04T05:49:58.462Z,1008.69
2017-09-04T05:51:08.450Z,1008.69
2017-09-04T05:52:18.412Z,1008.69
2017-09-04T05:53:28.708Z,1008.73
2017-09-04T05:54:39.295Z,1008.79
2017-09-04T05:55:49.278Z,1008.78
2017-09-04T05:56:59.818Z,1008.82
2017-09-04T05:58:09.474Z,1008.75
2017-09-04T05:59:19.451Z,1008.72
2017-09-04T06:00:29.992Z,1008.77
2017-09-04T06:01:40.289Z,1008.78
2017-09-04T06:02:50.505Z,1008.8
2017-09-04T06:04:00.793Z,1008.78
2017-09-04T06:05:10.744Z,1008.87
2017-09-04T06:06:21.298Z,1008.91
2017-09-04T06:07:31.570Z,1008.89
2017-09-04T06:08:41.835Z,1008.92
2017-09-04T06:09:52.123Z,1008.98
2017-09-04T06:11:02.425Z,1009.01
2017-09-04T06:12:12.960Z,1009.02
2017-09-04T06:13:23.253Z,1008.99
2017-09-04T06:14:33.524Z,1009.04
2017-09-04T06:15:43.803Z,1008.99
2017-09-04T06:16:54.067Z,1009
2017-09-04T06:18:04.271Z,1009.04
2017-09-04T06:19:14.565Z,1009.09
2017-09-04T06:20:24.854Z,1009.1
2017-09-04T06:21:34.825Z,1009.11
2017-09-04T06:22:44.785Z,1009.08
2017-09-04T06:23:55.007Z,1009.12
2017-09-04T06:25:05.318Z,1009.16
2017-09-04T06:26:15.583Z,1009.19
2017-09-04T06:27:25.559Z,1009.16
2017-09-04T06:28:35.522Z,1009.21
2017-09-04T06:29:45.730Z,1009.18
2017-09-04T06:30:56.007Z,1009.22
2017-09-04T06:32:06.295Z,1009.2
2017-09-04T06:33:16.556Z,1009.2
2017-09-04T06:34:26.819Z,1009.25
2017-09-04T06:35:37.340Z,1009.23
2017-09-04T06:36:47.622Z,1009.25
2017-09-04T06:37:57.918Z,1009.29
2017-09-04T06:39:08.185Z,1009.26
2017-09-04T06:40:18.168Z,1009.31
2017-09-04T06:41:28.740Z,1009.27
2017-09-04T06:42:39.011Z,1009.23
2017-09-04T06:43:49.272Z,1009.27
2017-09-04T06:44:59.540Z,1009.27
2017-09-04T06:46:09.821Z,1009.33
2017-09-04T06:47:20.374Z,1009.32
2017-09-04T06:48:30.005Z,1009.34
2017-09-04T06:49:40.311Z,1009.32
2017-09-04T06:50:50.580Z,1009.33
2017-09-04T06:52:00.233Z,1009.31
2017-09-04T06:53:10.448Z,1009.33
2017-09-04T06:54:20.428Z,1009.31
2017-09-04T06:55:30.401Z,1009.31
2017-09-04T06:56:40.682Z,1009.34
2017-09-04T06:57:50.659Z,1009.34
2017-09-04T06:59:00.572Z,1009.34
2017-09-04T07:00:10.529Z,1009.38
2017-09-04T07:01:20.805Z,1009.39
2017-09-04T07:02:31.090Z,1009.43
2017-09-04T07:03:41.413Z,1009.41
2017-09-04T07:04:51.626Z,1009.45
2017-09-04T07:06:01.596Z,1009.44
2017-09-04T07:07:11.866Z,1009.41
2017-09-04T07:08:22.162Z,1009.44
2017-09-04T07:09:32.438Z,1009.44
2017-09-04T07:10:42.959Z,1009.44
2017-09-04T07:11:53.248Z,1009.46
2017-09-04T07:13:03.536Z,1009.46
2017-09-04T07:14:13.815Z,1009.51
2017-09-04T07:15:24.078Z,1009.47
2017-09-04T07:16:34.311Z,1009.51
2017-09-04T07:17:44.578Z,1009.49
2017-09-04T07:18:54.853Z,1009.5
2017-09-04T07:20:04.505Z,1009.5
2017-09-04T07:21:14.459Z,1009.53
2017-09-04T07:22:24.974Z,1009.54
2017-09-04T07:23:34.617Z,1009.53
2017-09-04T07:24:44.946Z,1009.57
2017-09-04T07:25:54.898Z,1009.53
2017-09-04T07:27:04.874Z,1009.6
2017-09-04T07:28:15.096Z,1009.61
2017-09-04T07:29:25.060Z,1009.63
2017-09-04T07:30:35.020Z,1009.58
2017-09-04T07:31:44.968Z,1009.63
2017-09-04T07:32:55.242Z,1009.59
2017-09-04T07:34:05.817Z,1009.66
2017-09-04T07:35:16.100Z,1009.62
2017-09-04T07:36:26.398Z,1009.62
2017-09-04T07:37:36.677Z,1009.61
2017-09-04T07:38:46.307Z,1009.66
2017-09-04T07:39:56.227Z,1009.62
2017-09-04T07:41:06.204Z,1009.64
2017-09-04T07:42:16.479Z,1009.62
2017-09-04T07:43:26.783Z,1009.64
2017-09-04T07:44:37.055Z,1009.69
2017-09-04T07:45:47.581Z,1009.69
2017-09-04T07:46:57.552Z,1009.69
2017-09-04T07:48:07.820Z,1009.72
2017-09-04T07:49:18.100Z,1009.75
2017-09-04T07:50:28.060Z,1009.75
2017-09-04T07:51:38.580Z,1009.76
2017-09-04T07:52:48.237Z,1009.72
2017-09-04T07:53:58.514Z,1009.73
2017-09-04T07:55:08.831Z,1009.8
2017-09-04T07:56:19.147Z,1009.8
2017-09-04T07:57:29.063Z,1009.78
2017-09-04T07:58:39.035Z,1009.82
2017-09-04T07:59:49.324Z,1009.82
2017-09-04T08:00:59.617Z,1009.82
2017-09-04T08:02:09.579Z,1009.8
2017-09-04T08:03:19.802Z,1009.83
2017-09-04T08:04:30.080Z,1009.8
2017-09-04T08:05:40.055Z,1009.83
2017-09-04T08:06:50.360Z,1009.8
2017-09-04T08:08:00.652Z,1009.87
2017-09-04T08:09:11.167Z,1009.88
2017-09-04T08:10:21.447Z,1009.87
2017-09-04T08:11:31.725Z,1009.82
2017-09-04T08:12:42.022Z,1009.85
2017-09-04T08:13:51.983Z,1009.82
2017-09-04T08:15:02.201Z,1009.9
2017-09-04T08:16:12.500Z,1009.87
2017-09-04T08:17:22.466Z,1009.91
2017-09-04T08:18:32.764Z,1009.9
2017-09-04T08:19:42.733Z,1009.88
2017-09-04T08:20:53.255Z,1009.88
2017-09-04T08:22:03.531Z,1009.87
2017-09-04T08:23:13.821Z,1009.89
2017-09-04T08:24:23.797Z,1009.97
2017-09-04T08:25:34.102Z,1009.93
2017-09-04T08:26:44.313Z,1009.96
2017-09-04T08:27:54.601Z,1009.97
2017-09-04T08:29:04.874Z,1009.89
2017-09-04T08:30:15.183Z,1009.95
2017-09-04T08:31:25.130Z,1009.9
2017-09-04T08:32:35.695Z,1009.95
2017-09-04T08:33:45.678Z,1009.85
2017-09-04T08:34:55.951Z,1009.97
2017-09-04T08:36:06.243Z,1009.91
2017-09-04T08:37:16.559Z,1009.97
2017-09-04T08:38:27.148Z,1009.94
2017-09-04T08:39:37.437Z,1009.89
2017-09-04T08:40:47.408Z,1009.92
2017-09-04T08:41:57.413Z,1009.98
2017-09-04T08:43:07.690Z,1009.98
2017-09-04T08:44:18.224Z,1009.94
2017-09-04T08:45:28.544Z,1009.95
2017-09-04T08:46:38.506Z,1009.98
2017-09-04T08:47:48.816Z,1010
2017-09-04T08:48:58.481Z,1009.97
2017-09-04T08:50:09.014Z,1010
2017-09-04T08:51:19.011Z,1009.93
2017-09-04T08:52:29.011Z,1009.93
2017-09-04T08:53:39.026Z,1009.97
2017-09-04T08:54:49.307Z,1009.98
2017-09-04T08:55:59.531Z,1009.94
2017-09-04T08:57:09.831Z,1009.94
2017-09-04T08:58:20.140Z,1009.92
2017-09-04T08:59:30.429Z,1010.01
2017-09-04T09:00:40.087Z,1010.04
2017-09-04T09:01:50.645Z,1010.04
2017-09-04T09:03:00.951Z,1010.02
2017-09-04T09:04:11.227Z,1010.11
2017-09-04T09:05:20.883Z,1010.17
2017-09-04T09:06:31.178Z,1010.05
2017-09-04T09:07:41.708Z,1010.1
2017-09-04T09:08:52.010Z,1010.1
2017-09-04T09:10:02.337Z,1010.07
2017-09-04T09:11:12.397Z,1010.08
2017-09-04T09:12:22.700Z,1010.05
2017-09-04T09:13:32.925Z,1010.17
2017-09-04T09:14:43.206Z,1010.1
2017-09-04T09:15:53.488Z,1010.11
2017-09-04T09:17:03.467Z,1010.1
2017-09-04T09:18:13.135Z,1010.15
2017-09-04T09:19:23.335Z,1010.1
2017-09-04T09:20:33.624Z,1010.09
2017-09-04T09:21:43.913Z,1010.06
2017-09-04T09:22:53.895Z,1010.05
2017-09-04T09:24:04.174Z,1010.04
2017-09-04T09:25:14.711Z,1010.15
2017-09-04T09:26:24.995Z,1010.14
2017-09-04T09:27:35.279Z,1010.12
2017-09-04T09:28:45.567Z,1010.25
2017-09-04T09:29:55.869Z,1010.12
2017-09-04T09:31:06.397Z,1010.26
2017-09-04T09:32:16.696Z,1010.17
2017-09-04T09:33:27.181Z,1010.22
2017-09-04T09:34:37.469Z,1010.14
2017-09-04T09:35:47.435Z,1010.11
2017-09-04T09:37:02.518Z,1010.17
2017-09-04T09:38:12.820Z,1010.21
2017-09-04T09:39:23.137Z,1010.27
2017-09-04T09:40:33.118Z,1010.17
2017-09-04T09:41:43.173Z,1010.18
2017-09-04T09:42:53.407Z,1010.2
2017-09-04T09:44:03.708Z,1010.2
2017-09-04T09:45:13.695Z,1010.15
2017-09-04T09:46:23.990Z,1010.14
2017-09-04T09:47:34.303Z,1010.14
2017-09-04T09:48:44.851Z,1010.07
2017-09-04T09:49:55.128Z,1010.11
2017-09-04T09:51:05.111Z,1010.16
2017-09-04T09:52:15.392Z,1010.11
2017-09-04T09:53:25.658Z,1010.06
2017-09-04T09:54:35.571Z,1010.04
2017-09-04T09:55:45.563Z,1010.09
2017-09-04T09:56:55.552Z,1010.17
2017-09-04T09:58:05.837Z,1010.09
2017-09-04T09:59:16.127Z,1010.23
2017-09-04T10:00:26.357Z,1010.15
2017-09-04T10:01:36.654Z,1010.11
2017-09-04T10:02:46.616Z,1010.12
2017-09-04T10:03:56.889Z,1010.13
2017-09-04T10:05:06.855Z,1010.13
2017-09-04T10:06:17.075Z,1010.07
2017-09-04T10:07:27.049Z,1010.04
2017-09-04T10:08:37.027Z,1010.08
2017-09-04T10:09:47.007Z,1010.05
2017-09-04T10:10:57.290Z,1010.03
2017-09-04T10:12:07.826Z,1010.04
2017-09-04T10:13:18.123Z,1010.1
2017-09-04T10:14:28.089Z,1010.01
2017-09-04T10:15:38.373Z,1010.06
2017-09-04T10:16:48.351Z,1010.05
2017-09-04T10:17:58.582Z,1010.13
2017-09-04T10:19:08.875Z,1010.01
2017-09-04T10:20:19.189Z,1010.04
2017-09-04T10:21:29.165Z,1010.07
2017-09-04T10:22:39.460Z,1010.04
2017-09-04T10:23:50.009Z,1010.07
2017-09-04T10:25:00.308Z,1010.08
2017-09-04T10:26:10.585Z,1010.21
2017-09-04T10:27:20.892Z,1010.11
2017-09-04T10:28:31.194Z,1010.12
2017-09-04T10:29:41.756Z,1010.06
2017-09-04T10:30:51.727Z,1010
2017-09-04T10:32:01.701Z,1009.97
2017-09-04T10:33:11.998Z,1010.07
2017-09-04T10:34:21.967Z,1010.02
2017-09-04T10:35:32.217Z,1010.12
2017-09-04T10:36:42.199Z,1010.01
2017-09-04T10:37:52.520Z,1010.14
2017-09-04T10:39:02.798Z,1010.08
2017-09-04T10:40:12.808Z,1010.1
2017-09-04T10:41:23.030Z,1010.02
2017-09-04T10:42:33.334Z,1010.09
2017-09-04T10:43:43.610Z,1010.09
2017-09-04T10:44:53.898Z,1010.14
2017-09-04T10:46:04.193Z,1010.2
2017-09-04T10:47:14.744Z,1010.25
2017-09-04T10:48:25.024Z,1010.19
2017-09-04T10:49:35.313Z,1010.1
2017-09-04T10:50:45.610Z,1010.13
2017-09-04T10:51:55.898Z,1010.05
2017-09-04T10:53:06.476Z,1010.09
2017-09-04T10:54:16.767Z,1010.18
2017-09-04T10:55:26.734Z,1010.11
2017-09-04T10:56:36.379Z,1010.07
2017-09-04T10:57:46.671Z,1010.25
2017-09-04T10:58:57.216Z,1010.19
2017-09-04T11:00:07.392Z,1010.31
2017-09-04T11:01:17.698Z,1010.16
2017-09-04T11:02:27.670Z,1010.13
2017-09-04T11:03:37.976Z,1010.23
2017-09-04T11:04:48.504Z,1010.14
2017-09-04T11:05:58.487Z,1010.14
2017-09-04T11:07:08.795Z,1010.23
2017-09-04T11:08:18.761Z,1010.14
2017-09-04T11:09:28.729Z,1010.1
2017-09-04T11:10:38.958Z,1010.11
2017-09-04T11:11:48.942Z,1010.04
2017-09-04T11:12:59.236Z,1010.18
2017-09-04T11:14:09.521Z,1010.29
2017-09-04T11:15:19.814Z,1010.07
2017-09-04T11:16:30.350Z,1010.18
2017-09-04T11:17:40.350Z,1010.11
2017-09-04T11:18:50.652Z,1010.14
2017-09-04T11:20:00.956Z,1010.11
2017-09-04T11:21:11.234Z,1010.01
2017-09-04T11:22:21.915Z,1010.16
2017-09-04T11:23:31.904Z,1010.07
2017-09-04T11:24:41.571Z,1010.23
2017-09-04T11:25:51.848Z,1010.22
2017-09-04T11:27:01.835Z,1010.19
2017-09-04T11:28:12.043Z,1010.14
2017-09-04T11:29:21.709Z,1010.2
2017-09-04T11:30:31.350Z,1010.16
2017-09-04T11:31:41.644Z,1010.21
2017-09-04T11:32:51.943Z,1010.21
2017-09-04T11:34:02.477Z,1010.23
2017-09-04T11:35:12.768Z,1010.31
2017-09-04T11:36:22.735Z,1010.24
2017-09-04T11:37:32.718Z,1010.05
2017-09-04T11:38:42.709Z,1010.27
2017-09-04T11:39:52.952Z,1010.25
2017-09-04T11:41:03.250Z,1010.14
2017-09-04T11:42:13.531Z,1010.25
2017-09-04T11:43:23.830Z,1010.3
2017-09-04T11:44:33.488Z,1010.34
2017-09-04T11:45:43.397Z,1010.21
2017-09-04T11:46:53.360Z,1010.16
2017-09-04T11:48:03.655Z,1010.25
2017-09-04T11:49:14.012Z,1010.21
2017-09-04T11:50:23.981Z,1010.16
2017-09-04T11:51:34.202Z,1010.17
2017-09-04T11:52:44.493Z,1010.28
2017-09-04T11:53:54.776Z,1010.16
2017-09-04T11:55:05.055Z,1010.16
2017-09-04T11:56:15.338Z,1010.22
2017-09-04T11:57:25.550Z,1010.15
2017-09-04T11:58:35.826Z,1010.42
2017-09-04T11:59:46.129Z,1010.45
2017-09-04T12:00:55.799Z,1010.34
2017-09-04T12:02:05.779Z,1010.25
2017-09-04T12:03:16.022Z,1010.26
2017-09-04T12:04:26.315Z,1010.16
2017-09-04T12:05:36.621Z,1010.14
2017-09-04T12:06:46.885Z,1010.18
2017-09-04T12:07:56.864Z,1010.08
2017-09-04T12:09:07.398Z,1010.19
2017-09-04T12:10:17.692Z,1010.11
2017-09-04T12:11:27.998Z,1010.19
2017-09-04T12:12:38.274Z,1010
2017-09-04T12:13:48.259Z,1010.06
2017-09-04T12:14:58.807Z,1010.07
2017-09-04T12:16:09.099Z,1010.2
2017-09-04T12:17:19.381Z,1010.09
2017-09-04T12:18:29.690Z,1009.95
2017-09-04T12:19:39.963Z,1010.16
2017-09-04T12:20:50.179Z,1010.15
2017-09-04T12:22:00.501Z,1010.15
2017-09-04T12:23:10.478Z,1010.1
2017-09-04T12:24:20.777Z,1010.18
2017-09-04T12:25:30.731Z,1010.18
2017-09-04T12:26:40.316Z,1010.13
2017-09-04T12:27:50.616Z,1010.14
2017-09-04T12:29:00.904Z,1010.27
2017-09-04T12:30:11.208Z,1010.24
2017-09-04T12:31:21.177Z,1010.14
2017-09-04T12:32:31.722Z,1010.01
2017-09-04T12:33:41.681Z,1010.11
2017-09-04T12:34:51.979Z,1009.94
2017-09-04T12:36:02.276Z,1009.91
2017-09-04T12:37:12.277Z,1010
2017-09-04T12:38:22.818Z,1010.04
2017-09-04T12:39:33.109Z,1009.96
2017-09-04T12:40:42.481Z,1009.91
2017-09-04T12:41:52.764Z,1009.9
2017-09-04T12:43:02.717Z,1010.03
2017-09-04T12:44:13.253Z,1009.95
2017-09-04T12:45:23.554Z,1009.95
2017-09-04T12:46:33.543Z,1009.99
2017-09-04T12:47:43.830Z,1010.01
2017-09-04T12:48:54.136Z,1009.99
2017-09-04T12:50:04.036Z,1009.91
2017-09-04T12:51:14.320Z,1009.93
2017-09-04T12:52:24.286Z,1009.96
2017-09-04T12:53:34.580Z,1010.01
2017-09-04T12:54:44.870Z,1010
2017-09-04T12:55:55.146Z,1009.93
2017-09-04T12:57:05.441Z,1009.92
2017-09-04T12:58:15.743Z,1009.92
2017-09-04T12:59:25.710Z,1009.91
2017-09-04T13:00:35.999Z,1010.01
2017-09-04T13:01:46.227Z,1010.03
2017-09-04T13:02:56.525Z,1009.93
2017-09-04T13:04:06.829Z,1009.94
2017-09-04T13:05:16.809Z,1010.06
2017-09-04T13:06:26.773Z,1010.02
2017-09-04T13:07:37.302Z,1009.97
2017-09-04T13:08:47.586Z,1009.93
2017-09-04T13:09:57.560Z,1010.01
2017-09-04T13:11:07.851Z,1010.29
2017-09-04T13:12:17.837Z,1010.06
2017-09-04T13:13:28.375Z,1010.19
2017-09-04T13:14:38.333Z,1010.07
2017-09-04T13:15:48.586Z,1010.23
2017-09-04T13:16:58.543Z,1010.17
2017-09-04T13:18:08.852Z,1010.15
2017-09-04T13:19:19.074Z,1009.94
2017-09-04T13:20:29.054Z,1010.16
2017-09-04T13:21:39.361Z,1010
2017-09-04T13:22:49.653Z,1010.11
2017-09-04T13:23:59.925Z,1010.01
2017-09-04T13:25:10.173Z,1009.97
2017-09-04T13:26:20.471Z,1009.91
2017-09-04T13:27:30.442Z,1010.07
2017-09-04T13:28:40.430Z,1010.02
2017-09-04T13:29:50.725Z,1009.97
2017-09-04T13:31:01.242Z,1010.01
2017-09-04T13:32:11.208Z,1010.1
2017-09-04T13:33:21.506Z,1010.08
2017-09-04T13:34:31.497Z,1010.03
2017-09-04T13:35:41.474Z,1010.02
2017-09-04T13:36:51.702Z,1010.11
2017-09-04T13:38:02.001Z,1009.99
2017-09-04T13:39:12.295Z,1010.08
2017-09-04T13:40:22.593Z,1010.2
2017-09-04T13:41:32.873Z,1010.1
2017-09-04T13:42:43.403Z,1010.06
2017-09-04T13:43:53.065Z,1009.98
2017-09-04T13:45:03.338Z,1010.04
2017-09-04T13:46:13.332Z,1010
2017-09-04T13:47:23.291Z,1009.96
2017-09-04T13:48:33.836Z,1009.98
2017-09-04T13:49:44.126Z,1009.93
2017-09-04T13:50:54.395Z,1009.93
2017-09-04T13:52:04.684Z,1010.04
2017-09-04T13:53:14.989Z,1009.97
2017-09-04T13:54:25.531Z,1010.01
2017-09-04T13:55:35.825Z,1010.03
2017-09-04T13:56:45.464Z,1009.96
2017-09-04T13:57:55.427Z,1010.2
2017-09-04T13:59:05.413Z,1010.05
2017-09-04T14:00:15.938Z,1010.14
2017-09-04T14:01:26.225Z,1009.99
2017-09-04T14:02:36.493Z,1010.11
2017-09-04T14:03:46.774Z,1009.99
2017-09-04T14:04:56.749Z,1009.98
2017-09-04T14:06:07.300Z,1010.02
2017-09-04T14:07:17.588Z,1010.04
2017-09-04T14:08:27.886Z,1009.95
2017-09-04T14:09:37.845Z,1009.98
2017-09-04T14:10:48.131Z,1009.93
2017-09-04T14:11:58.667Z,1009.87